Time;durP1;ratioP1;P1;durP2;ratioP2;P2;SDS_P1;SDS_P2;PMS_P1;PMS_P2;Temp;Humidity;BMP_temperature;BMP_pressure;BME280_temperature;BME280_humidity;BME280_pressure;Samples;Min_cycle;Max_cycle;Signal;HPM_P1;HPM_P2
2022/03/29 00:01:04;;;;;;;5.25;2.70;;;13.00;32.10;;;;;;2339406;54;20959;-66
2022/03/29 00:03:31;;;;;;;4.62;2.58;;;13.00;32.20;;;;;;2339396;54;21012;-66
2022/03/29 00:05:57;;;;;;;4.62;2.70;;;13.00;32.20;;;;;;2339329;54;20912;-64
2022/03/29 00:08:24;;;;;;;5.62;3.08;;;13.00;32.30;;;;;;2339596;54;20996;-66
2022/03/29 00:10:50;;;;;;;4.80;2.83;;;12.90;32.40;;;;;;2339827;54;21003;-66
2022/03/29 00:13:17;;;;;;;6.80;2.92;;;12.90;32.50;;;;;;2339412;53;20976;-66
2022/03/29 00:15:44;;;;;;;5.50;2.90;;;12.90;32.50;;;;;;2456469;53;21008;-65
2022/03/29 00:18:10;;;;;;;5.50;3.15;;;12.80;32.60;;;;;;2322118;53;20952;-65
2022/03/29 00:20:36;;;;;;;5.00;2.80;;;12.80;32.70;;;;;;2343281;53;20916;-64
2022/03/29 00:23:05;;;;;;;7.03;2.92;;;12.80;32.70;;;;;;2342932;53;20933;-67
2022/03/29 00:25:32;;;;;;;5.18;2.60;;;12.80;32.70;;;;;;2332348;53;21026;-65
2022/03/29 00:28:01;;;;;;;5.30;3.00;;;12.70;32.70;;;;;;2339642;54;20909;-63
2022/03/29 00:30:27;;;;;;;5.80;2.90;;;12.70;32.90;;;;;;2336280;54;20925;-65
2022/03/29 00:32:54;;;;;;;4.65;2.83;;;12.60;32.80;;;;;;2342006;53;20985;-66
2022/03/29 00:35:21;;;;;;;4.95;2.67;;;12.60;32.90;;;;;;2341664;53;20988;-64
2022/03/29 00:37:48;;;;;;;7.15;3.50;;;12.60;33.00;;;;;;2331216;53;21879;-64
2022/03/29 00:40:14;;;;;;;6.62;3.17;;;12.50;33.00;;;;;;2338637;54;20984;-64
2022/03/29 00:42:41;;;;;;;4.97;2.70;;;12.50;33.10;;;;;;2335580;54;21024;-64
2022/03/29 00:45:08;;;;;;;4.85;2.80;;;12.50;33.10;;;;;;2559779;52;20956;-65
2022/03/29 00:47:34;;;;;;;4.60;2.67;;;12.50;33.20;;;;;;2347235;53;21033;-63
2022/03/29 00:50:00;;;;;;;5.47;3.08;;;12.40;33.10;;;;;;2317529;54;20965;-64
2022/03/29 00:52:27;;;;;;;4.53;2.60;;;12.40;33.20;;;;;;2335976;53;20967;-64
2022/03/29 00:54:53;;;;;;;4.90;2.60;;;12.40;33.20;;;;;;2337780;53;21437;-64
2022/03/29 00:57:35;;;;;;;5.15;2.72;;;12.40;33.30;;;;;;2339779;54;20933;-66
2022/03/29 01:00:02;;;;;;;4.57;2.47;;;12.30;33.70;;;;;;2339718;54;20949;-66
2022/03/29 01:02:28;;;;;;;5.55;3.08;;;12.30;33.30;;;;;;2339688;54;20897;-66
2022/03/29 01:04:54;;;;;;;5.53;2.58;;;12.20;33.30;;;;;;2487955;53;21003;-66
2022/03/29 01:07:20;;;;;;;7.30;3.00;;;12.20;33.30;;;;;;2338453;54;20980;-66
2022/03/29 01:09:47;;;;;;;5.68;3.00;;;12.20;33.40;;;;;;2339978;54;21115;-63
2022/03/29 01:12:13;;;;;;;5.57;3.12;;;12.10;33.50;;;;;;2339692;54;20980;-64
2022/03/29 01:14:40;;;;;;;5.10;2.62;;;12.10;33.60;;;;;;2538305;53;21007;-64
2022/03/29 01:19:52;;;;;;;5.70;3.12;;;12.00;33.60;;;;;;2583576;53;21013;-64
2022/03/29 01:22:20;;;;;;;5.78;3.28;;;12.00;33.60;;;;;;2322333;53;20920;-64
2022/03/29 01:24:47;;;;;;;9.00;3.50;;;11.90;33.60;;;;;;2339528;54;20992;-64
2022/03/29 01:27:14;;;;;;;5.90;2.72;;;11.90;33.80;;;;;;2342216;53;21004;-63
2022/03/29 01:29:40;;;;;;;4.97;2.62;;;11.90;34.00;;;;;;2339583;53;20971;-64
2022/03/29 01:32:10;;;;;;;4.95;2.67;;;11.90;34.00;;;;;;2339536;54;21686;-64
2022/03/29 01:34:39;;;;;;;5.47;3.00;;;11.90;34.10;;;;;;2339849;54;21072;-63
2022/03/29 01:37:06;;;;;;;4.60;3.00;;;11.80;34.00;;;;;;2320570;55;21307;-65
2022/03/29 01:39:33;;;;;;;5.20;2.80;;;11.80;34.10;;;;;;2473445;53;21047;-63
2022/03/29 01:42:01;;;;;;;5.00;2.65;;;11.80;34.20;;;;;;2342929;53;21658;-65
2022/03/29 01:44:30;;;;;;;4.57;2.60;;;11.80;34.20;;;;;;2554162;53;20897;-66
2022/03/29 01:46:57;;;;;;;4.90;2.75;;;11.80;34.30;;;;;;2584381;53;20940;-65
2022/03/29 01:49:23;;;;;;;4.53;2.75;;;11.70;34.20;;;;;;2339942;54;20939;-64
2022/03/29 01:51:51;;;;;;;4.45;2.47;;;11.70;34.30;;;;;;2339556;54;20923;-64
2022/03/29 01:54:17;;;;;;;5.28;2.80;;;11.70;34.30;;;;;;2339993;54;21024;-64
2022/03/29 01:56:44;;;;;;;4.57;2.58;;;11.70;34.40;;;;;;2362492;53;20917;-65
2022/03/29 01:59:13;;;;;;;5.15;2.95;;;11.70;34.50;;;;;;2337920;53;20956;-65
2022/03/29 02:01:43;;;;;;;5.75;3.20;;;11.70;34.70;;;;;;2336351;53;20941;-66
2022/03/29 02:04:10;;;;;;;5.20;2.80;;;11.70;34.60;;;;;;2339748;54;20945;-65
2022/03/29 02:06:36;;;;;;;6.03;2.70;;;11.60;34.60;;;;;;2568609;53;21448;-64
2022/03/29 02:09:03;;;;;;;5.60;2.70;;;11.60;34.60;;;;;;2340072;53;20967;-66
2022/03/29 02:11:29;;;;;;;4.28;2.60;;;11.60;34.70;;;;;;2585247;53;20981;-65
2022/03/29 02:13:56;;;;;;;3.83;2.35;;;11.60;34.70;;;;;;2339630;54;20980;-65
2022/03/29 02:16:23;;;;;;;4.57;2.42;;;11.60;34.80;;;;;;2339992;54;20925;-66
2022/03/29 02:18:51;;;;;;;5.40;2.30;;;11.60;34.90;;;;;;2339666;54;20979;-65
2022/03/29 02:21:17;;;;;;;4.55;2.47;;;11.60;34.90;;;;;;2339840;54;20940;-67
2022/03/29 02:23:43;;;;;;;5.10;2.47;;;11.60;34.90;;;;;;2339808;54;21453;-65
2022/03/29 02:26:09;;;;;;;4.07;2.33;;;11.60;35.00;;;;;;2343105;53;21874;-65
2022/03/29 02:28:36;;;;;;;4.15;2.30;;;11.60;35.00;;;;;;2326082;53;21901;-65
2022/03/29 02:31:02;;;;;;;4.30;2.72;;;11.60;35.00;;;;;;2340292;54;20995;-65
2022/03/29 02:33:29;;;;;;;4.62;2.47;;;11.60;35.10;;;;;;2339795;54;20925;-65
2022/03/29 02:35:56;;;;;;;5.00;2.53;;;11.60;35.20;;;;;;2432099;53;20965;-66
2022/03/29 02:38:23;;;;;;;5.45;3.03;;;11.60;35.30;;;;;;2427601;52;20901;-65
2022/03/29 02:40:49;;;;;;;4.60;2.37;;;11.60;35.40;;;;;;2339949;54;20953;-66
2022/03/29 02:43:15;;;;;;;5.40;2.75;;;11.60;35.40;;;;;;2339570;54;20936;-64
2022/03/29 02:45:42;;;;;;;4.40;2.58;;;11.50;35.30;;;;;;2344083;53;21888;-67
2022/03/29 02:48:09;;;;;;;4.28;2.17;;;11.60;35.40;;;;;;2338623;53;21706;-63
2022/03/29 02:50:35;;;;;;;5.70;2.78;;;11.60;35.50;;;;;;2580279;53;21051;-64
2022/03/29 02:53:04;;;;;;;4.97;2.40;;;11.60;35.60;;;;;;2339600;54;21061;-65
2022/03/29 02:55:32;;;;;;;5.78;2.22;;;11.60;35.80;;;;;;2344282;53;21432;-66
2022/03/29 02:57:59;;;;;;;8.05;2.97;;;11.60;35.70;;;;;;2339931;54;20992;-62
2022/03/29 03:00:34;;;;;;;5.43;2.30;;;11.60;35.80;;;;;;2585309;53;21013;-63
2022/03/29 03:03:03;;;;;;;4.95;2.67;;;11.70;36.20;;;;;;2585214;53;20941;-64
2022/03/29 03:05:29;;;;;;;5.32;2.75;;;11.70;36.00;;;;;;2494781;53;20925;-64
2022/03/29 03:07:55;;;;;;;5.25;2.65;;;11.70;36.00;;;;;;2339200;54;20952;-65
2022/03/29 03:10:22;;;;;;;5.78;3.40;;;11.80;36.00;;;;;;2342476;53;20973;-64
2022/03/29 03:12:48;;;;;;;4.82;2.90;;;11.80;36.00;;;;;;2340303;54;20932;-65
2022/03/29 03:15:21;;;;;;;5.35;2.95;;;11.90;36.10;;;;;;2343073;54;21018;-65
2022/03/29 03:17:55;;;;;;;3.72;2.30;;;11.90;36.20;;;;;;2340038;53;21027;-65
2022/03/29 03:20:22;;;;;;;5.10;3.12;;;12.00;36.30;;;;;;2557963;53;20942;-63
2022/03/29 03:22:50;;;;;;;4.90;2.90;;;12.00;36.10;;;;;;2339840;54;20932;-65
2022/03/29 03:25:16;;;;;;;5.07;2.60;;;12.00;36.00;;;;;;2342469;53;20968;-66
2022/03/29 03:27:45;;;;;;;5.72;3.25;;;12.10;36.00;;;;;;2338695;53;20968;-63
2022/03/29 03:30:13;;;;;;;6.97;2.75;;;12.10;36.10;;;;;;2339950;54;21433;-66
2022/03/29 03:32:40;;;;;;;4.20;2.47;;;12.10;36.00;;;;;;2413710;53;20952;-63
2022/03/29 03:35:07;;;;;;;4.55;2.70;;;12.20;36.00;;;;;;2339936;53;20980;-64
2022/03/29 03:37:34;;;;;;;5.30;3.20;;;12.10;35.80;;;;;;2345625;54;22667;-67
2022/03/29 03:40:03;;;;;;;5.10;3.08;;;12.20;35.90;;;;;;2577720;52;20944;-65
2022/03/29 03:42:30;;;;;;;5.45;3.12;;;12.10;35.90;;;;;;2339803;54;21291;-65
2022/03/29 03:44:58;;;;;;;4.72;2.90;;;12.10;35.90;;;;;;2585375;53;20928;-65
2022/03/29 03:47:25;;;;;;;4.45;2.78;;;12.20;36.00;;;;;;2513958;53;21714;-64
2022/03/29 03:49:52;;;;;;;5.53;3.35;;;12.10;35.90;;;;;;2343257;53;21032;-66
2022/03/29 03:52:18;;;;;;;5.35;2.87;;;12.20;36.00;;;;;;2343086;53;23234;-65
2022/03/29 03:54:46;;;;;;;4.22;2.58;;;12.10;36.00;;;;;;2326911;53;21067;-65
2022/03/29 03:57:13;;;;;;;6.22;2.85;;;12.20;36.10;;;;;;2340603;53;21051;-64
2022/03/29 03:59:39;;;;;;;5.12;2.92;;;12.10;36.00;;;;;;2584669;53;20920;-66
2022/03/29 04:02:06;;;;;;;5.32;3.17;;;12.10;35.90;;;;;;2339288;54;20988;-63
2022/03/29 04:04:32;;;;;;;5.97;2.95;;;12.10;35.90;;;;;;2338849;54;21003;-64
2022/03/29 04:06:59;;;;;;;5.00;3.25;;;12.10;35.90;;;;;;2383310;53;20992;-64
2022/03/29 04:09:25;;;;;;;6.22;3.20;;;12.10;36.00;;;;;;2351057;53;21016;-66
2022/03/29 04:11:51;;;;;;;4.57;2.70;;;12.00;36.00;;;;;;2339197;54;21012;-64
2022/03/29 04:14:17;;;;;;;4.65;2.62;;;12.00;35.90;;;;;;2339637;54;20992;-64
2022/03/29 04:16:44;;;;;;;5.80;3.12;;;12.00;35.90;;;;;;2338039;54;20984;-66
2022/03/29 04:19:10;;;;;;;4.50;2.85;;;12.00;36.00;;;;;;2342020;53;20977;-66
2022/03/29 04:21:37;;;;;;;4.97;2.85;;;11.90;36.00;;;;;;2332707;53;20991;-65
2022/03/29 04:24:04;;;;;;;5.55;3.40;;;11.90;36.00;;;;;;2330452;53;20982;-64
2022/03/29 04:26:31;;;;;;;7.53;3.35;;;11.90;36.10;;;;;;2582452;53;21476;-67
2022/03/29 04:28:58;;;;;;;6.78;2.58;;;11.80;36.10;;;;;;2335156;53;20941;-64
2022/03/29 04:31:24;;;;;;;5.60;3.10;;;11.80;36.10;;;;;;2348423;53;21091;-65
2022/03/29 04:33:50;;;;;;;6.10;3.45;;;11.80;36.20;;;;;;2340109;54;20917;-65
2022/03/29 04:36:17;;;;;;;4.95;3.17;;;11.80;36.30;;;;;;2339653;54;21804;-65
2022/03/29 04:38:45;;;;;;;6.95;3.45;;;11.70;36.30;;;;;;2343137;53;20925;-64
2022/03/29 04:41:11;;;;;;;5.65;2.97;;;11.70;36.40;;;;;;2340255;53;21019;-65
2022/03/29 04:43:37;;;;;;;4.95;2.87;;;11.70;36.40;;;;;;2339937;54;20912;-64
2022/03/29 04:46:04;;;;;;;5.32;3.15;;;11.70;36.50;;;;;;2340067;54;20940;-64
2022/03/29 04:48:31;;;;;;;7.15;3.60;;;11.70;36.50;;;;;;2584961;53;20916;-65
2022/03/29 04:50:57;;;;;;;6.25;3.20;;;11.60;36.50;;;;;;2339804;54;21464;-65
2022/03/29 04:53:24;;;;;;;4.87;2.62;;;11.60;36.50;;;;;;2584640;53;20936;-65
2022/03/29 04:55:51;;;;;;;4.95;2.53;;;11.60;36.60;;;;;;2339385;54;21397;-65
2022/03/29 04:58:21;;;;;;;4.95;3.03;;;11.60;36.50;;;;;;2584623;53;20964;-64
2022/03/29 05:00:50;;;;;;;4.87;2.92;;;11.60;36.60;;;;;;2339653;54;21004;-63
2022/03/29 05:03:16;;;;;;;5.50;2.85;;;11.60;36.60;;;;;;2585085;53;20952;-66
2022/03/29 05:05:46;;;;;;;5.45;2.70;;;11.60;36.60;;;;;;2338932;53;21761;-63
2022/03/29 05:08:13;;;;;;;4.40;2.50;;;11.60;36.60;;;;;;2339406;54;20962;-64
2022/03/29 05:10:40;;;;;;;4.82;2.78;;;11.60;36.60;;;;;;2339650;54;20916;-65
2022/03/29 05:13:07;;;;;;;4.35;2.80;;;11.60;36.70;;;;;;2448088;53;21024;-65
2022/03/29 05:15:34;;;;;;;4.12;2.40;;;11.60;36.80;;;;;;2343180;53;20924;-63
2022/03/29 05:18:00;;;;;;;6.75;3.20;;;11.50;36.70;;;;;;2343275;54;21025;-66
2022/03/29 05:20:28;;;;;;;5.20;3.22;;;11.50;36.80;;;;;;2584392;53;20944;-64
2022/03/29 05:22:57;;;;;;;5.72;3.40;;;11.60;37.00;;;;;;2507797;53;20941;-63
2022/03/29 05:25:24;;;;;;;5.78;3.53;;;11.50;36.90;;;;;;2339417;54;20924;-66
2022/03/29 05:27:51;;;;;;;4.60;2.78;;;11.50;36.90;;;;;;2339515;54;20917;-65
2022/03/29 05:30:17;;;;;;;5.07;2.95;;;11.50;36.90;;;;;;2368962;53;21648;-64
2022/03/29 05:32:44;;;;;;;5.57;3.70;;;11.50;37.00;;;;;;2339564;54;20984;-66
2022/03/29 05:35:10;;;;;;;6.32;3.85;;;11.50;37.10;;;;;;2499218;53;21594;-66
2022/03/29 05:37:37;;;;;;;5.90;3.50;;;11.50;37.20;;;;;;2339675;54;21568;-64
2022/03/29 05:40:04;;;;;;;6.20;3.70;;;11.50;37.30;;;;;;2342628;53;21013;-65
2022/03/29 05:42:31;;;;;;;6.75;4.03;;;11.50;37.40;;;;;;2339334;53;21059;-64
2022/03/29 05:44:57;;;;;;;8.25;4.35;;;11.50;37.30;;;;;;2339757;54;21850;-63
2022/03/29 05:50:08;;;;;;;6.62;3.62;;;11.60;37.60;;;;;;2585331;53;21765;-65
2022/03/29 05:52:37;;;;;;;7.35;4.10;;;11.60;37.60;;;;;;2339666;54;20959;-64
2022/03/29 05:55:04;;;;;;;6.85;3.80;;;11.60;37.70;;;;;;2339816;54;20976;-64
2022/03/29 05:57:31;;;;;;;6.68;3.62;;;11.60;37.70;;;;;;2342701;53;20921;-66
2022/03/29 05:59:57;;;;;;;6.25;3.42;;;11.60;37.70;;;;;;2326479;53;20951;-66
2022/03/29 06:02:24;;;;;;;5.07;2.90;;;11.60;37.60;;;;;;2570012;53;20916;-66
2022/03/29 06:04:52;;;;;;;5.70;3.28;;;11.70;37.70;;;;;;2339518;54;20948;-65
2022/03/29 06:07:19;;;;;;;6.93;3.30;;;11.70;37.80;;;;;;2343901;53;21083;-64
2022/03/29 06:09:47;;;;;;;4.60;2.75;;;11.80;37.90;;;;;;2338918;53;20929;-65
2022/03/29 06:12:13;;;;;;;4.62;2.30;;;11.80;38.00;;;;;;2339804;54;21016;-65
2022/03/29 06:14:39;;;;;;;4.80;2.60;;;11.80;38.00;;;;;;2339233;54;21506;-66
2022/03/29 06:17:06;;;;;;;4.03;2.22;;;11.90;38.00;;;;;;2342330;53;21683;-65
2022/03/29 06:19:32;;;;;;;5.68;3.08;;;12.00;38.10;;;;;;2343479;53;20978;-64
2022/03/29 06:21:59;;;;;;;5.30;3.03;;;12.00;38.20;;;;;;2394362;53;21800;-65
2022/03/29 06:24:26;;;;;;;6.45;3.30;;;12.10;38.30;;;;;;2339225;54;20932;-66
2022/03/29 06:26:52;;;;;;;4.65;2.83;;;12.10;38.40;;;;;;2339962;54;20912;-66
2022/03/29 06:29:19;;;;;;;6.30;3.40;;;12.20;38.40;;;;;;2583891;53;20917;-63
2022/03/29 06:31:45;;;;;;;6.20;3.67;;;12.20;38.40;;;;;;2584355;53;21456;-64
2022/03/29 06:34:13;;;;;;;6.93;3.50;;;12.30;38.40;;;;;;2339294;54;20940;-64
2022/03/29 06:36:39;;;;;;;5.40;3.40;;;12.40;38.60;;;;;;2339613;53;21433;-64
2022/03/29 06:39:08;;;;;;;5.60;3.05;;;12.40;38.70;;;;;;2342954;53;21009;-64
2022/03/29 06:41:34;;;;;;;6.93;3.60;;;12.50;38.70;;;;;;2333662;53;21540;-65
2022/03/29 06:44:06;;;;;;;8.05;3.80;;;12.50;38.60;;;;;;2341758;53;20992;-65
2022/03/29 06:46:34;;;;;;;7.20;4.72;;;12.60;38.80;;;;;;2332027;53;20967;-65
2022/03/29 06:49:03;;;;;;;8.60;3.65;;;12.60;38.70;;;;;;2347128;53;21571;-64
2022/03/29 06:51:31;;;;;;;6.75;3.87;;;12.70;38.80;;;;;;2333347;53;21005;-66
2022/03/29 06:53:58;;;;;;;6.18;3.17;;;12.80;38.80;;;;;;2584208;53;20964;-67
2022/03/29 06:56:25;;;;;;;8.73;4.45;;;12.80;38.80;;;;;;2339786;53;20987;-65
2022/03/29 06:58:51;;;;;;;9.43;4.15;;;12.90;39.00;;;;;;2339777;54;20975;-66
2022/03/29 07:01:18;;;;;;;7.00;4.35;;;12.90;38.90;;;;;;2339832;54;21012;-66
2022/03/29 07:03:45;;;;;;;5.37;3.28;;;13.00;39.00;;;;;;2339520;54;20953;-65
2022/03/29 07:06:12;;;;;;;8.25;4.57;;;13.10;39.10;;;;;;2430193;53;20913;-66
2022/03/29 07:11:16;;;;;;;7.90;4.20;;;13.10;39.10;;;;;;2339949;54;20964;-65
2022/03/29 07:13:44;;;;;;;5.57;3.65;;;13.20;39.20;;;;;;2584609;53;21280;-66
2022/03/29 07:16:16;;;;;;;7.45;3.97;;;13.40;39.10;;;;;;2339478;54;20952;-67
2022/03/29 07:18:46;;;;;;;6.85;3.83;;;13.40;39.00;;;;;;2339965;54;20981;-64
2022/03/29 07:21:12;;;;;;;7.28;4.32;;;13.50;39.00;;;;;;2344018;53;21021;-66
2022/03/29 07:23:39;;;;;;;8.15;4.45;;;13.60;39.10;;;;;;2329725;53;20928;-64
2022/03/29 07:26:06;;;;;;;7.32;3.95;;;13.60;39.00;;;;;;2343554;53;21441;-66
2022/03/29 07:28:32;;;;;;;6.35;3.55;;;13.70;39.10;;;;;;2584185;53;20945;-67
2022/03/29 07:30:59;;;;;;;6.55;3.97;;;13.70;39.20;;;;;;2339964;53;20931;-66
2022/03/29 07:33:25;;;;;;;5.87;3.75;;;13.80;39.20;;;;;;2339679;54;20919;-65
2022/03/29 07:35:52;;;;;;;10.00;4.12;;;13.90;40.00;;;;;;2339697;54;20923;-66
2022/03/29 07:38:19;;;;;;;8.27;4.50;;;14.00;39.40;;;;;;2340302;54;21000;-65
2022/03/29 07:40:45;;;;;;;8.70;4.65;;;14.00;39.30;;;;;;2344729;53;20965;-66
2022/03/29 07:43:12;;;;;;;6.18;4.03;;;14.10;39.30;;;;;;2339265;53;20937;-64
2022/03/29 07:45:38;;;;;;;9.07;4.60;;;14.20;39.40;;;;;;2339022;53;20921;-64
2022/03/29 07:48:05;;;;;;;6.45;3.97;;;14.30;39.40;;;;;;2339639;54;21749;-66
2022/03/29 07:51:01;;;;;;;6.93;4.00;;;14.30;39.30;;;;;;2339741;54;20932;-64
2022/03/29 07:53:29;;;;;;;6.47;3.87;;;14.40;39.10;;;;;;2341728;53;21022;-63
2022/03/29 07:55:56;;;;;;;6.05;3.70;;;14.60;38.90;;;;;;2339484;53;21488;-67
2022/03/29 07:58:23;;;;;;;7.70;3.37;;;14.60;38.80;;;;;;2339822;54;21017;-65
2022/03/29 08:00:50;;;;;;;6.30;3.78;;;14.70;38.70;;;;;;2345029;53;21398;-64
2022/03/29 08:03:18;;;;;;;6.07;3.80;;;14.80;38.70;;;;;;2412908;52;21008;-64
2022/03/29 08:05:45;;;;;;;6.47;4.20;;;14.90;38.60;;;;;;2338046;53;20925;-65
2022/03/29 08:08:13;;;;;;;7.90;3.75;;;15.00;38.60;;;;;;2339705;54;20968;-65
2022/03/29 08:10:39;;;;;;;6.25;3.85;;;15.10;38.70;;;;;;2428536;53;20923;-63
2022/03/29 08:13:10;;;;;;;7.28;3.70;;;15.20;38.60;;;;;;2339998;54;20933;-66
2022/03/29 08:15:37;;;;;;;6.45;3.60;;;15.30;38.60;;;;;;2321758;54;20965;-64
2022/03/29 08:18:07;;;;;;;6.30;3.67;;;15.40;38.70;;;;;;2346089;53;20977;-65
2022/03/29 08:20:34;;;;;;;5.68;3.72;;;15.50;38.70;;;;;;2347429;53;20941;-65
2022/03/29 08:23:01;;;;;;;7.28;3.92;;;15.70;38.70;;;;;;2344432;53;20905;-65
2022/03/29 08:25:31;;;;;;;7.70;4.30;;;15.90;38.90;;;;;;2344720;53;21745;-66
2022/03/29 08:27:58;;;;;;;6.18;3.62;;;16.10;39.20;;;;;;2560700;52;20954;-67
2022/03/29 08:30:24;;;;;;;7.45;3.95;;;16.40;39.60;;;;;;2345084;53;20893;-66
2022/03/29 08:32:51;;;;;;;5.60;3.50;;;16.70;39.60;;;;;;2344251;53;21480;-66
2022/03/29 08:35:17;;;;;;;7.95;4.03;;;17.00;39.30;;;;;;2342904;53;20984;-68
2022/03/29 08:37:46;;;;;;;7.93;3.75;;;17.30;39.20;;;;;;2343651;53;20949;-66
2022/03/29 08:40:15;;;;;;;6.05;3.75;;;17.60;39.30;;;;;;2348318;53;21036;-66
2022/03/29 08:42:43;;;;;;;5.75;3.67;;;17.90;39.30;;;;;;2490837;52;20980;-66
2022/03/29 08:45:10;;;;;;;8.10;4.55;;;18.20;39.40;;;;;;2344473;53;20937;-66
2022/03/29 08:47:40;;;;;;;7.22;3.90;;;18.60;39.50;;;;;;2549523;54;21786;-67
2022/03/29 08:50:08;;;;;;;6.82;3.80;;;19.00;39.70;;;;;;2331891;53;20940;-66
2022/03/29 08:52:39;;;;;;;5.70;3.90;;;19.40;39.70;;;;;;2336490;54;20907;-67
2022/03/29 08:55:06;;;;;;;9.43;5.57;;;19.90;39.60;;;;;;2558632;53;21366;-66
2022/03/29 08:57:33;;;;;;;12.23;6.12;;;20.30;39.50;;;;;;2318057;53;21044;-67
2022/03/29 08:59:59;;;;;;;13.15;6.62;;;20.70;39.30;;;;;;2317550;53;20957;-68
2022/03/29 09:02:26;;;;;;;8.80;5.35;;;21.10;39.30;;;;;;2385726;53;20949;-68
2022/03/29 09:05:15;;;;;;;8.07;5.47;;;21.40;39.10;;;;;;2317799;53;21001;-68
2022/03/29 09:07:50;;;;;;;7.82;4.90;;;21.90;38.30;;;;;;2317928;53;21001;-68
2022/03/29 09:10:17;;;;;;;9.43;4.60;;;22.30;38.40;;;;;;2317430;53;20984;-67
2022/03/29 09:12:44;;;;;;;8.23;4.70;;;22.70;38.10;;;;;;2522873;53;20992;-68
2022/03/29 09:15:10;;;;;;;7.93;5.15;;;23.00;37.80;;;;;;2340511;54;20961;-66
2022/03/29 09:17:41;;;;;;;7.93;4.68;;;23.40;37.60;;;;;;2339895;54;20928;-67
2022/03/29 09:20:16;;;;;;;6.90;4.37;;;23.70;37.10;;;;;;2343559;53;21007;-69
2022/03/29 09:22:53;;;;;;;8.63;5.30;;;24.00;36.50;;;;;;2342024;53;22030;-66
2022/03/29 09:25:22;;;;;;;8.10;5.00;;;24.30;36.20;;;;;;2360255;53;21356;-67
2022/03/29 09:28:02;;;;;;;10.13;4.80;;;24.60;35.90;;;;;;2346381;53;20932;-67
2022/03/29 09:30:42;;;;;;;6.95;4.22;;;24.80;34.80;;;;;;2591355;52;21057;-68
2022/03/29 09:33:13;;;;;;;7.15;4.18;;;25.00;34.20;;;;;;2362135;53;20926;-68
2022/03/29 09:36:07;;;;;;;9.40;4.95;;;25.10;34.00;;;;;;2345114;53;21417;-69
2022/03/29 09:38:37;;;;;;;7.62;4.47;;;25.20;32.70;;;;;;2344314;53;21438;-67
2022/03/29 09:41:05;;;;;;;7.18;4.85;;;25.20;33.00;;;;;;2345027;53;20937;-67
2022/03/29 09:43:32;;;;;;;6.35;4.28;;;25.20;32.50;;;;;;2343668;53;20993;-67
2022/03/29 09:46:00;;;;;;;6.72;4.32;;;25.20;32.10;;;;;;2375202;54;21026;-67
2022/03/29 09:48:34;;;;;;;5.95;4.18;;;25.20;31.90;;;;;;2319328;53;21036;-67
2022/03/29 09:52:08;;;;;;;6.97;4.20;;;25.10;31.80;;;;;;2345255;53;21012;-69
2022/03/29 09:54:34;;;;;;;10.50;4.12;;;25.10;31.20;;;;;;2349171;53;20885;-67
2022/03/29 09:57:00;;;;;;;5.72;3.62;;;25.20;31.50;;;;;;2341702;53;21558;-67
2022/03/29 09:59:27;;;;;;;5.55;3.70;;;25.20;31.30;;;;;;2339440;53;20984;-67
2022/03/29 10:01:56;;;;;;;6.18;4.22;;;25.20;31.10;;;;;;2345064;53;21004;-67
2022/03/29 10:04:23;;;;;;;7.45;5.18;;;25.30;30.90;;;;;;2411112;53;20932;-66
2022/03/29 10:06:54;;;;;;;8.85;4.82;;;25.30;30.50;;;;;;2347056;53;21020;-67
2022/03/29 10:09:29;;;;;;;6.87;4.20;;;25.30;30.40;;;;;;2348032;53;20936;-67
2022/03/29 10:12:05;;;;;;;6.12;3.85;;;25.30;29.80;;;;;;2550119;52;21002;-68
2022/03/29 10:14:37;;;;;;;8.10;5.20;;;25.30;28.60;;;;;;2331749;53;21003;-67
2022/03/29 10:17:04;;;;;;;7.30;4.70;;;25.30;28.70;;;;;;2340577;54;20917;-68
2022/03/29 10:19:31;;;;;;;9.85;5.15;;;25.20;28.60;;;;;;2344755;53;20944;-71
2022/03/29 10:21:58;;;;;;;9.15;4.95;;;25.20;28.30;;;;;;2344588;53;22017;-67
2022/03/29 10:24:25;;;;;;;7.18;4.90;;;25.20;28.40;;;;;;2403779;52;20972;-67
2022/03/29 10:26:52;;;;;;;7.65;4.75;;;25.10;28.10;;;;;;2319839;53;20968;-67
2022/03/29 10:29:18;;;;;;;8.68;4.45;;;25.10;28.10;;;;;;2496600;53;20968;-68
2022/03/29 10:31:53;;;;;;;7.30;4.97;;;25.10;28.20;;;;;;2317927;53;20929;-69
2022/03/29 10:34:30;;;;;;;6.75;4.37;;;25.10;27.50;;;;;;2318601;53;21056;-67
2022/03/29 10:37:10;;;;;;;10.82;5.62;;;25.10;27.30;;;;;;2336247;54;20997;-67
2022/03/29 10:40:05;;;;;;;11.23;5.12;;;25.10;26.40;;;;;;2339945;54;20995;-67
2022/03/29 10:42:42;;;;;;;8.15;4.28;;;25.10;26.20;;;;;;2340348;54;20984;-67
2022/03/29 10:45:22;;;;;;;9.18;5.53;;;25.00;26.40;;;;;;2585358;53;21762;-71
2022/03/29 10:48:11;;;;;;;7.37;5.12;;;25.00;25.80;;;;;;2340463;54;20976;-71
2022/03/29 10:50:56;;;;;;;7.75;5.45;;;24.90;24.70;;;;;;2342970;54;20924;-67
2022/03/29 10:53:24;;;;;;;9.95;4.93;;;24.80;24.60;;;;;;2339914;53;20979;-67
2022/03/29 10:56:23;;;;;;;8.82;4.60;;;24.70;25.00;;;;;;2551546;53;21464;-70
2022/03/29 11:00:44;;;;;;;12.93;5.05;;;24.70;25.10;;;;;;2340243;54;20964;-67
2022/03/29 11:03:20;;;;;;;5.43;4.00;;;24.70;25.60;;;;;;2340056;54;20944;-68
2022/03/29 11:06:17;;;;;;;6.90;4.18;;;24.70;25.30;;;;;;2557990;53;21016;-69
2022/03/29 11:08:47;;;;;;;6.28;4.30;;;24.70;25.20;;;;;;2340471;54;20940;-68
2022/03/29 11:11:36;;;;;;;7.68;4.80;;;24.80;25.50;;;;;;2339290;53;20949;-67
2022/03/29 11:14:54;;;;;;;8.00;4.15;;;24.80;24.60;;;;;;2343789;53;20913;-67
2022/03/29 11:17:42;;;;;;;9.48;5.12;;;24.80;24.30;;;;;;2340457;54;21024;-67
2022/03/29 11:20:29;;;;;;;10.07;4.78;;;24.80;23.80;;;;;;2585952;53;20948;-71
2022/03/29 11:22:59;;;;;;;11.95;4.25;;;24.80;23.90;;;;;;2339873;54;20908;-70
2022/03/29 11:25:25;;;;;;;7.65;4.45;;;24.80;24.50;;;;;;2343541;53;20929;-68
2022/03/29 11:27:52;;;;;;;9.30;5.15;;;24.80;24.60;;;;;;2347674;53;20947;-67
2022/03/29 11:30:19;;;;;;;8.25;5.03;;;24.90;24.30;;;;;;2581740;53;21061;-67
2022/03/29 11:32:46;;;;;;;10.80;5.12;;;24.90;24.50;;;;;;2342349;53;21719;-68
2022/03/29 11:35:12;;;;;;;8.10;4.65;;;24.90;24.30;;;;;;2342945;53;20977;-67
2022/03/29 11:37:43;;;;;;;8.70;4.87;;;25.00;23.90;;;;;;2339705;53;20936;-67
2022/03/29 11:40:17;;;;;;;7.12;4.35;;;25.00;23.80;;;;;;2340159;54;21857;-68
2022/03/29 11:43:05;;;;;;;7.80;4.37;;;25.00;24.10;;;;;;2340505;54;21337;-68
2022/03/29 11:45:40;;;;;;;6.75;4.50;;;25.00;23.80;;;;;;2339835;54;21019;-68
2022/03/29 11:48:12;;;;;;;9.35;4.75;;;25.00;23.60;;;;;;2348303;54;20964;-68
2022/03/29 11:50:54;;;;;;;;;;;25.00;23.30;;;;;;2338686;53;20953;-68
2022/03/29 11:53:35;;;;;;;7.93;4.25;;;25.00;23.50;;;;;;2347939;53;20146;-68
2022/03/29 11:56:22;;;;;;;8.15;4.97;;;25.00;23.10;;;;;;2336662;53;21020;-73
2022/03/29 11:58:52;;;;;;;8.32;4.53;;;25.00;22.50;;;;;;2563309;53;21698;-67
2022/03/29 12:01:28;;;;;;;8.50;4.32;;;25.00;23.10;;;;;;2339089;53;20948;-67
2022/03/29 12:03:57;;;;;;;12.73;4.85;;;25.00;22.80;;;;;;2339350;54;20991;-72
2022/03/29 12:06:25;;;;;;;7.68;5.15;;;25.00;23.10;;;;;;2339749;54;20928;-67
2022/03/29 12:08:59;;;;;;;7.15;4.22;;;25.00;22.80;;;;;;2338574;53;20936;-68
2022/03/29 12:11:30;;;;;;;6.22;3.97;;;25.00;22.60;;;;;;2338514;54;21436;-69
2022/03/29 12:14:30;;;;;;;7.85;4.45;;;25.10;22.90;;;;;;2486878;53;20936;-68
2022/03/29 12:17:03;;;;;;;8.23;4.78;;;25.10;22.30;;;;;;2343159;53;20928;-70
2022/03/29 12:19:33;;;;;;;7.80;4.82;;;25.10;22.40;;;;;;2338834;54;20948;-68
2022/03/29 12:22:03;;;;;;;9.90;5.20;;;25.10;22.60;;;;;;2339538;54;20948;-68
2022/03/29 12:24:39;;;;;;;11.10;6.00;;;25.10;22.20;;;;;;2339488;54;20940;-67
2022/03/29 12:27:12;;;;;;;7.75;4.60;;;25.00;21.60;;;;;;2338531;54;20992;-67
2022/03/29 12:29:47;;;;;;;8.48;5.18;;;25.00;22.10;;;;;;2339691;54;20939;-67
2022/03/29 12:32:13;;;;;;;8.98;5.00;;;25.00;22.10;;;;;;2513589;53;21012;-67
2022/03/29 12:34:43;;;;;;;6.95;4.53;;;25.00;22.20;;;;;;2320374;55;21045;-69
2022/03/29 12:37:18;;;;;;;9.60;5.40;;;25.00;22.30;;;;;;2339712;54;20960;-67
2022/03/29 12:39:45;;;;;;;9.43;4.95;;;25.00;21.40;;;;;;2336749;53;21518;-67
2022/03/29 12:42:16;;;;;;;6.50;4.32;;;25.00;21.90;;;;;;2442805;53;21437;-67
2022/03/29 12:44:46;;;;;;;7.75;4.53;;;25.00;21.90;;;;;;2343771;53;21885;-68
2022/03/29 12:47:13;;;;;;;10.35;5.10;;;25.00;22.10;;;;;;2585733;53;21773;-67
2022/03/29 12:49:40;;;;;;;12.23;5.00;;;25.00;22.00;;;;;;2402992;52;21027;-68
2022/03/29 12:52:10;;;;;;;6.70;4.00;;;25.00;22.10;;;;;;2340084;54;20979;-66
2022/03/29 12:54:43;;;;;;;5.95;3.83;;;25.00;22.20;;;;;;2343735;53;20928;-68
2022/03/29 12:57:13;;;;;;;10.40;4.30;;;25.00;22.30;;;;;;2343884;53;20917;-67
2022/03/29 12:59:44;;;;;;;7.18;4.50;;;25.10;22.50;;;;;;2338918;53;20996;-67
2022/03/29 13:02:23;;;;;;;11.52;5.20;;;25.20;22.50;;;;;;2344313;53;21526;-68
2022/03/29 13:05:10;;;;;;;12.65;4.93;;;25.20;22.10;;;;;;2349742;54;20957;-70
2022/03/29 13:08:01;;;;;;;8.68;4.18;;;25.20;22.00;;;;;;2507839;53;21652;-67